Terminal Aerodrome Forecast
Issued by NWS Mobile, AL

Home | Current Version | Previous Version | Text Only | Print | Product List | Glossary On
Versions: 1 2 3 4 5 6 7 8 9 10 11 12 13 14 15 16
000
FTUS44 KMOB 292326
TAFMOB
TAF
KMOB 292326Z 3000/3024 08008KT P6SM VCTS SCT060CB SCT250
     FM300400 VRB02KT P6SM SKC
     FM301500 06009KT P6SM FEW250=

USA.gov is the U.S. government's official web portal to all federal, state and local government web resources and services.